sensor_id;sensor_type;location;lat;lon;timestamp;P1;durP1;ratioP1;P2;durP2;ratioP2
12585;SDS011;6358;50.760;0.282;2023-04-25T00:01:06;1.90;;;1.40;;
12585;SDS011;6358;50.760;0.282;2023-04-25T00:03:34;3.57;;;1.63;;
12585;SDS011;6358;50.760;0.282;2023-04-25T00:06:00;1.50;;;1.30;;
12585;SDS011;6358;50.760;0.282;2023-04-25T00:08:29;1.83;;;1.43;;
12585;SDS011;6358;50.760;0.282;2023-04-25T00:10:56;1.77;;;1.40;;
12585;SDS011;6358;50.760;0.282;2023-04-25T00:13:22;1.63;;;1.40;;
12585;SDS011;6358;50.760;0.282;2023-04-25T00:15:48;2.80;;;1.60;;
12585;SDS011;6358;50.760;0.282;2023-04-25T00:18:15;1.60;;;1.50;;
12585;SDS011;6358;50.760;0.282;2023-04-25T00:20:42;3.53;;;1.60;;
12585;SDS011;6358;50.760;0.282;2023-04-25T00:23:12;3.13;;;1.70;;
12585;SDS011;6358;50.760;0.282;2023-04-25T00:25:43;2.40;;;1.60;;
12585;SDS011;6358;50.760;0.282;2023-04-25T00:28:10;3.17;;;1.73;;
12585;SDS011;6358;50.760;0.282;2023-04-25T00:30:36;2.27;;;1.60;;
12585;SDS011;6358;50.760;0.282;2023-04-25T00:33:02;1.97;;;1.50;;
12585;SDS011;6358;50.760;0.282;2023-04-25T00:35:28;1.70;;;1.40;;
12585;SDS011;6358;50.760;0.282;2023-04-25T00:37:54;3.27;;;1.70;;
12585;SDS011;6358;50.760;0.282;2023-04-25T00:40:20;1.63;;;1.53;;
12585;SDS011;6358;50.760;0.282;2023-04-25T00:42:47;2.37;;;1.47;;
12585;SDS011;6358;50.760;0.282;2023-04-25T00:45:13;2.33;;;1.60;;
12585;SDS011;6358;50.760;0.282;2023-04-25T00:47:40;2.17;;;1.80;;
12585;SDS011;6358;50.760;0.282;2023-04-25T00:50:08;2.40;;;1.60;;
12585;SDS011;6358;50.760;0.282;2023-04-25T00:52:35;2.50;;;1.57;;
12585;SDS011;6358;50.760;0.282;2023-04-25T00:55:01;2.40;;;1.70;;
12585;SDS011;6358;50.760;0.282;2023-04-25T00:57:28;1.77;;;1.50;;
12585;SDS011;6358;50.760;0.282;2023-04-25T00:59:54;1.70;;;1.57;;
12585;SDS011;6358;50.760;0.282;2023-04-25T01:02:20;2.20;;;1.50;;
12585;SDS011;6358;50.760;0.282;2023-04-25T01:04:47;2.70;;;1.50;;
12585;SDS011;6358;50.760;0.282;2023-04-25T01:07:13;2.00;;;1.60;;
12585;SDS011;6358;50.760;0.282;2023-04-25T01:09:40;2.30;;;1.73;;
12585;SDS011;6358;50.760;0.282;2023-04-25T01:12:06;2.13;;;1.60;;
12585;SDS011;6358;50.760;0.282;2023-04-25T01:14:33;1.97;;;1.60;;
12585;SDS011;6358;50.760;0.282;2023-04-25T01:16:59;2.00;;;1.50;;
12585;SDS011;6358;50.760;0.282;2023-04-25T01:19:25;2.87;;;1.67;;
12585;SDS011;6358;50.760;0.282;2023-04-25T01:21:51;2.00;;;1.57;;
12585;SDS011;6358;50.760;0.282;2023-04-25T01:24:17;3.90;;;1.80;;
12585;SDS011;6358;50.760;0.282;2023-04-25T01:26:44;1.73;;;1.57;;
12585;SDS011;6358;50.760;0.282;2023-04-25T01:29:15;2.07;;;1.70;;
12585;SDS011;6358;50.760;0.282;2023-04-25T01:31:41;3.03;;;1.60;;
12585;SDS011;6358;50.760;0.282;2023-04-25T01:34:07;2.90;;;1.77;;
12585;SDS011;6358;50.760;0.282;2023-04-25T01:36:33;2.23;;;1.60;;
12585;SDS011;6358;50.760;0.282;2023-04-25T01:39:00;2.40;;;1.83;;
12585;SDS011;6358;50.760;0.282;2023-04-25T01:41:27;2.47;;;1.53;;
12585;SDS011;6358;50.760;0.282;2023-04-25T01:43:53;2.40;;;1.60;;
12585;SDS011;6358;50.760;0.282;2023-04-25T01:46:19;3.23;;;1.80;;
12585;SDS011;6358;50.760;0.282;2023-04-25T01:48:45;2.43;;;1.90;;
12585;SDS011;6358;50.760;0.282;2023-04-25T01:51:11;3.43;;;1.97;;
12585;SDS011;6358;50.760;0.282;2023-04-25T01:53:38;2.93;;;1.70;;
12585;SDS011;6358;50.760;0.282;2023-04-25T01:56:04;2.07;;;1.67;;
12585;SDS011;6358;50.760;0.282;2023-04-25T01:58:31;2.33;;;1.90;;
12585;SDS011;6358;50.760;0.282;2023-04-25T02:00:57;2.53;;;1.80;;
12585;SDS011;6358;50.760;0.282;2023-04-25T02:03:23;2.90;;;1.73;;
12585;SDS011;6358;50.760;0.282;2023-04-25T02:05:49;4.07;;;1.70;;
12585;SDS011;6358;50.760;0.282;2023-04-25T02:08:16;1.87;;;1.50;;
12585;SDS011;6358;50.760;0.282;2023-04-25T02:10:43;2.77;;;1.80;;
12585;SDS011;6358;50.760;0.282;2023-04-25T02:13:09;2.77;;;1.97;;
12585;SDS011;6358;50.760;0.282;2023-04-25T02:15:35;2.73;;;1.80;;
12585;SDS011;6358;50.760;0.282;2023-04-25T02:18:01;2.60;;;1.73;;
12585;SDS011;6358;50.760;0.282;2023-04-25T02:20:28;3.07;;;2.00;;
12585;SDS011;6358;50.760;0.282;2023-04-25T02:22:55;3.23;;;1.90;;
12585;SDS011;6358;50.760;0.282;2023-04-25T02:25:21;4.13;;;2.13;;
12585;SDS011;6358;50.760;0.282;2023-04-25T02:27:48;5.50;;;2.10;;
12585;SDS011;6358;50.760;0.282;2023-04-25T02:30:15;2.63;;;2.13;;
12585;SDS011;6358;50.760;0.282;2023-04-25T02:32:41;4.37;;;2.17;;
12585;SDS011;6358;50.760;0.282;2023-04-25T02:35:07;3.83;;;1.97;;
12585;SDS011;6358;50.760;0.282;2023-04-25T02:37:34;3.33;;;2.07;;
12585;SDS011;6358;50.760;0.282;2023-04-25T02:40:00;3.43;;;1.93;;
12585;SDS011;6358;50.760;0.282;2023-04-25T02:42:27;2.00;;;1.70;;
12585;SDS011;6358;50.760;0.282;2023-04-25T02:44:55;3.00;;;1.80;;
12585;SDS011;6358;50.760;0.282;2023-04-25T02:47:21;3.87;;;1.80;;
12585;SDS011;6358;50.760;0.282;2023-04-25T02:49:47;3.80;;;1.87;;
12585;SDS011;6358;50.760;0.282;2023-04-25T02:52:13;4.27;;;1.80;;
12585;SDS011;6358;50.760;0.282;2023-04-25T02:54:39;3.57;;;1.90;;
12585;SDS011;6358;50.760;0.282;2023-04-25T02:57:06;3.10;;;1.70;;
12585;SDS011;6358;50.760;0.282;2023-04-25T02:59:33;3.27;;;2.07;;
12585;SDS011;6358;50.760;0.282;2023-04-25T03:01:59;2.97;;;2.10;;
12585;SDS011;6358;50.760;0.282;2023-04-25T03:04:26;3.03;;;2.23;;
12585;SDS011;6358;50.760;0.282;2023-04-25T03:06:52;3.83;;;2.07;;
12585;SDS011;6358;50.760;0.282;2023-04-25T03:09:18;3.87;;;1.90;;
12585;SDS011;6358;50.760;0.282;2023-04-25T03:11:45;3.97;;;1.90;;
12585;SDS011;6358;50.760;0.282;2023-04-25T03:14:11;3.00;;;1.80;;
12585;SDS011;6358;50.760;0.282;2023-04-25T03:16:37;3.77;;;1.80;;
12585;SDS011;6358;50.760;0.282;2023-04-25T03:19:04;4.40;;;1.80;;
12585;SDS011;6358;50.760;0.282;2023-04-25T03:21:34;3.13;;;1.90;;
12585;SDS011;6358;50.760;0.282;2023-04-25T03:24:01;2.87;;;1.90;;
12585;SDS011;6358;50.760;0.282;2023-04-25T03:26:27;3.30;;;2.00;;
12585;SDS011;6358;50.760;0.282;2023-04-25T03:28:54;2.80;;;1.70;;
12585;SDS011;6358;50.760;0.282;2023-04-25T03:31:20;3.60;;;1.90;;
12585;SDS011;6358;50.760;0.282;2023-04-25T03:33:47;2.23;;;1.80;;
12585;SDS011;6358;50.760;0.282;2023-04-25T03:36:13;3.50;;;1.90;;
12585;SDS011;6358;50.760;0.282;2023-04-25T03:38:39;2.47;;;1.83;;
12585;SDS011;6358;50.760;0.282;2023-04-25T03:41:06;3.83;;;2.00;;
12585;SDS011;6358;50.760;0.282;2023-04-25T03:43:32;2.67;;;1.63;;
12585;SDS011;6358;50.760;0.282;2023-04-25T03:45:59;3.23;;;1.80;;
12585;SDS011;6358;50.760;0.282;2023-04-25T03:48:25;5.23;;;2.07;;
12585;SDS011;6358;50.760;0.282;2023-04-25T03:50:52;4.10;;;2.00;;
12585;SDS011;6358;50.760;0.282;2023-04-25T03:53:18;5.67;;;2.10;;
12585;SDS011;6358;50.760;0.282;2023-04-25T03:55:44;3.37;;;1.73;;
12585;SDS011;6358;50.760;0.282;2023-04-25T03:58:11;3.23;;;1.80;;
12585;SDS011;6358;50.760;0.282;2023-04-25T04:00:37;4.47;;;1.83;;
12585;SDS011;6358;50.760;0.282;2023-04-25T04:03:03;2.97;;;1.80;;
12585;SDS011;6358;50.760;0.282;2023-04-25T04:05:29;4.87;;;1.83;;
12585;SDS011;6358;50.760;0.282;2023-04-25T04:07:56;4.00;;;2.00;;
12585;SDS011;6358;50.760;0.282;2023-04-25T04:10:22;4.13;;;1.80;;
12585;SDS011;6358;50.760;0.282;2023-04-25T04:12:48;3.60;;;1.67;;
12585;SDS011;6358;50.760;0.282;2023-04-25T04:15:14;3.03;;;1.80;;
12585;SDS011;6358;50.760;0.282;2023-04-25T04:17:40;3.97;;;2.00;;
12585;SDS011;6358;50.760;0.282;2023-04-25T04:20:06;3.10;;;1.93;;
12585;SDS011;6358;50.760;0.282;2023-04-25T04:22:33;2.87;;;1.80;;
12585;SDS011;6358;50.760;0.282;2023-04-25T04:25:00;2.60;;;1.60;;
12585;SDS011;6358;50.760;0.282;2023-04-25T04:27:26;3.63;;;1.90;;
12585;SDS011;6358;50.760;0.282;2023-04-25T04:29:53;3.80;;;2.00;;
12585;SDS011;6358;50.760;0.282;2023-04-25T04:32:19;3.00;;;1.80;;
12585;SDS011;6358;50.760;0.282;2023-04-25T04:34:45;3.30;;;1.80;;
12585;SDS011;6358;50.760;0.282;2023-04-25T04:37:12;3.13;;;1.93;;
12585;SDS011;6358;50.760;0.282;2023-04-25T04:39:38;3.87;;;1.80;;
12585;SDS011;6358;50.760;0.282;2023-04-25T04:42:05;4.47;;;1.80;;
12585;SDS011;6358;50.760;0.282;2023-04-25T04:44:31;3.43;;;1.80;;
12585;SDS011;6358;50.760;0.282;2023-04-25T04:47:00;2.90;;;1.70;;
12585;SDS011;6358;50.760;0.282;2023-04-25T04:49:28;3.83;;;1.80;;
12585;SDS011;6358;50.760;0.282;2023-04-25T04:51:55;3.37;;;2.10;;
12585;SDS011;6358;50.760;0.282;2023-04-25T04:54:21;4.23;;;1.90;;
12585;SDS011;6358;50.760;0.282;2023-04-25T04:56:47;2.83;;;1.57;;
12585;SDS011;6358;50.760;0.282;2023-04-25T04:59:13;3.13;;;1.90;;
12585;SDS011;6358;50.760;0.282;2023-04-25T05:01:39;3.43;;;1.93;;
12585;SDS011;6358;50.760;0.282;2023-04-25T05:04:05;3.13;;;1.70;;
12585;SDS011;6358;50.760;0.282;2023-04-25T05:06:31;2.93;;;1.60;;
12585;SDS011;6358;50.760;0.282;2023-04-25T05:08:57;2.57;;;1.80;;
12585;SDS011;6358;50.760;0.282;2023-04-25T05:11:24;3.97;;;1.70;;
12585;SDS011;6358;50.760;0.282;2023-04-25T05:13:53;3.63;;;1.97;;
12585;SDS011;6358;50.760;0.282;2023-04-25T05:16:20;3.67;;;2.03;;
12585;SDS011;6358;50.760;0.282;2023-04-25T05:18:46;4.00;;;1.90;;
12585;SDS011;6358;50.760;0.282;2023-04-25T05:21:12;2.67;;;1.73;;
12585;SDS011;6358;50.760;0.282;2023-04-25T05:23:38;4.27;;;1.70;;
12585;SDS011;6358;50.760;0.282;2023-04-25T05:26:04;2.30;;;1.80;;
12585;SDS011;6358;50.760;0.282;2023-04-25T05:28:31;4.43;;;1.80;;
12585;SDS011;6358;50.760;0.282;2023-04-25T05:30:57;2.67;;;1.70;;
12585;SDS011;6358;50.760;0.282;2023-04-25T05:33:23;3.80;;;2.00;;
12585;SDS011;6358;50.760;0.282;2023-04-25T05:35:49;3.90;;;1.67;;
12585;SDS011;6358;50.760;0.282;2023-04-25T05:38:16;4.70;;;1.83;;
12585;SDS011;6358;50.760;0.282;2023-04-25T05:40:42;3.57;;;1.90;;
12585;SDS011;6358;50.760;0.282;2023-04-25T05:43:08;2.60;;;1.57;;
12585;SDS011;6358;50.760;0.282;2023-04-25T05:45:34;4.23;;;1.70;;
12585;SDS011;6358;50.760;0.282;2023-04-25T05:48:00;3.57;;;1.93;;
12585;SDS011;6358;50.760;0.282;2023-04-25T05:50:26;4.17;;;1.77;;
12585;SDS011;6358;50.760;0.282;2023-04-25T05:52:52;3.43;;;1.60;;
12585;SDS011;6358;50.760;0.282;2023-04-25T05:55:18;3.00;;;1.57;;
12585;SDS011;6358;50.760;0.282;2023-04-25T05:57:45;2.70;;;1.70;;
12585;SDS011;6358;50.760;0.282;2023-04-25T06:00:14;4.47;;;1.67;;
12585;SDS011;6358;50.760;0.282;2023-04-25T06:02:41;3.23;;;1.93;;
12585;SDS011;6358;50.760;0.282;2023-04-25T06:05:07;3.60;;;1.90;;
12585;SDS011;6358;50.760;0.282;2023-04-25T06:07:34;3.13;;;1.50;;
12585;SDS011;6358;50.760;0.282;2023-04-25T06:10:00;2.17;;;1.43;;
12585;SDS011;6358;50.760;0.282;2023-04-25T06:12:26;3.67;;;1.80;;
12585;SDS011;6358;50.760;0.282;2023-04-25T06:14:52;2.57;;;1.60;;
12585;SDS011;6358;50.760;0.282;2023-04-25T06:17:19;4.90;;;1.50;;
12585;SDS011;6358;50.760;0.282;2023-04-25T06:19:45;2.63;;;1.63;;
12585;SDS011;6358;50.760;0.282;2023-04-25T06:22:11;3.73;;;1.97;;
12585;SDS011;6358;50.760;0.282;2023-04-25T06:24:37;2.40;;;1.53;;
12585;SDS011;6358;50.760;0.282;2023-04-25T06:27:03;4.00;;;1.57;;
12585;SDS011;6358;50.760;0.282;2023-04-25T06:29:30;2.90;;;1.70;;
12585;SDS011;6358;50.760;0.282;2023-04-25T06:31:56;3.23;;;1.70;;
12585;SDS011;6358;50.760;0.282;2023-04-25T06:34:22;3.47;;;1.50;;
12585;SDS011;6358;50.760;0.282;2023-04-25T06:36:48;2.77;;;1.60;;
12585;SDS011;6358;50.760;0.282;2023-04-25T06:39:14;3.67;;;1.80;;
12585;SDS011;6358;50.760;0.282;2023-04-25T06:41:40;3.17;;;1.50;;
12585;SDS011;6358;50.760;0.282;2023-04-25T06:44:06;2.77;;;1.60;;
12585;SDS011;6358;50.760;0.282;2023-04-25T06:46:32;3.70;;;1.80;;
12585;SDS011;6358;50.760;0.282;2023-04-25T06:48:59;2.70;;;1.57;;
12585;SDS011;6358;50.760;0.282;2023-04-25T06:51:25;2.93;;;1.50;;
12585;SDS011;6358;50.760;0.282;2023-04-25T06:53:54;2.80;;;1.70;;
12585;SDS011;6358;50.760;0.282;2023-04-25T06:56:20;3.77;;;1.50;;
12585;SDS011;6358;50.760;0.282;2023-04-25T06:58:46;1.87;;;1.37;;
12585;SDS011;6358;50.760;0.282;2023-04-25T07:01:12;2.70;;;1.80;;
12585;SDS011;6358;50.760;0.282;2023-04-25T07:03:39;3.50;;;1.50;;
12585;SDS011;6358;50.760;0.282;2023-04-25T07:06:05;2.87;;;1.50;;
12585;SDS011;6358;50.760;0.282;2023-04-25T07:08:31;2.83;;;1.60;;
12585;SDS011;6358;50.760;0.282;2023-04-25T07:10:57;2.47;;;1.30;;
12585;SDS011;6358;50.760;0.282;2023-04-25T07:13:23;2.20;;;1.40;;
12585;SDS011;6358;50.760;0.282;2023-04-25T07:15:49;2.27;;;1.53;;
12585;SDS011;6358;50.760;0.282;2023-04-25T07:18:16;3.10;;;1.60;;
12585;SDS011;6358;50.760;0.282;2023-04-25T07:20:42;2.53;;;1.60;;
12585;SDS011;6358;50.760;0.282;2023-04-25T07:23:08;2.50;;;1.27;;
12585;SDS011;6358;50.760;0.282;2023-04-25T07:25:34;4.70;;;2.00;;
12585;SDS011;6358;50.760;0.282;2023-04-25T07:28:00;1.83;;;1.40;;
12585;SDS011;6358;50.760;0.282;2023-04-25T07:30:26;1.80;;;1.30;;
12585;SDS011;6358;50.760;0.282;2023-04-25T07:32:52;4.13;;;1.70;;
12585;SDS011;6358;50.760;0.282;2023-04-25T07:35:18;2.30;;;1.33;;
12585;SDS011;6358;50.760;0.282;2023-04-25T07:37:44;3.23;;;1.50;;
12585;SDS011;6358;50.760;0.282;2023-04-25T07:40:10;2.23;;;1.30;;
12585;SDS011;6358;50.760;0.282;2023-04-25T07:42:37;2.57;;;1.60;;
12585;SDS011;6358;50.760;0.282;2023-04-25T07:45:03;3.70;;;1.70;;
12585;SDS011;6358;50.760;0.282;2023-04-25T07:47:29;4.70;;;1.67;;
12585;SDS011;6358;50.760;0.282;2023-04-25T07:49:55;2.87;;;1.50;;
12585;SDS011;6358;50.760;0.282;2023-04-25T07:52:22;4.87;;;1.70;;
12585;SDS011;6358;50.760;0.282;2023-04-25T07:54:48;3.23;;;1.63;;
12585;SDS011;6358;50.760;0.282;2023-04-25T07:57:15;2.57;;;1.40;;
12585;SDS011;6358;50.760;0.282;2023-04-25T07:59:42;2.67;;;1.50;;
12585;SDS011;6358;50.760;0.282;2023-04-25T08:02:08;2.90;;;1.50;;
12585;SDS011;6358;50.760;0.282;2023-04-25T08:04:34;2.37;;;1.70;;
12585;SDS011;6358;50.760;0.282;2023-04-25T08:07:00;1.83;;;1.40;;
12585;SDS011;6358;50.760;0.282;2023-04-25T08:09:26;2.13;;;1.33;;
12585;SDS011;6358;50.760;0.282;2023-04-25T08:11:52;2.80;;;1.63;;
12585;SDS011;6358;50.760;0.282;2023-04-25T08:14:18;4.53;;;1.47;;
12585;SDS011;6358;50.760;0.282;2023-04-25T08:16:44;3.67;;;1.60;;
12585;SDS011;6358;50.760;0.282;2023-04-25T08:19:10;3.27;;;1.57;;
12585;SDS011;6358;50.760;0.282;2023-04-25T08:21:37;2.50;;;1.30;;
12585;SDS011;6358;50.760;0.282;2023-04-25T08:24:03;1.97;;;1.43;;
12585;SDS011;6358;50.760;0.282;2023-04-25T08:26:29;4.53;;;1.50;;
12585;SDS011;6358;50.760;0.282;2023-04-25T08:28:55;2.20;;;1.20;;
12585;SDS011;6358;50.760;0.282;2023-04-25T08:31:21;2.17;;;1.33;;
12585;SDS011;6358;50.760;0.282;2023-04-25T08:33:47;3.23;;;1.50;;
12585;SDS011;6358;50.760;0.282;2023-04-25T08:36:14;2.83;;;1.50;;
12585;SDS011;6358;50.760;0.282;2023-04-25T08:38:40;2.67;;;1.50;;
12585;SDS011;6358;50.760;0.282;2023-04-25T08:41:06;3.93;;;1.63;;
12585;SDS011;6358;50.760;0.282;2023-04-25T08:43:33;2.20;;;1.40;;
12585;SDS011;6358;50.760;0.282;2023-04-25T08:46:00;2.50;;;1.50;;
12585;SDS011;6358;50.760;0.282;2023-04-25T08:48:27;2.63;;;1.50;;
12585;SDS011;6358;50.760;0.282;2023-04-25T08:50:55;2.73;;;1.50;;
12585;SDS011;6358;50.760;0.282;2023-04-25T08:53:23;2.67;;;1.50;;
12585;SDS011;6358;50.760;0.282;2023-04-25T08:55:51;2.13;;;1.53;;
12585;SDS011;6358;50.760;0.282;2023-04-25T08:58:18;2.93;;;1.53;;
12585;SDS011;6358;50.760;0.282;2023-04-25T09:00:45;2.53;;;1.60;;
12585;SDS011;6358;50.760;0.282;2023-04-25T09:03:11;3.93;;;1.77;;
12585;SDS011;6358;50.760;0.282;2023-04-25T09:05:39;2.83;;;1.30;;
12585;SDS011;6358;50.760;0.282;2023-04-25T09:08:05;2.23;;;1.50;;
12585;SDS011;6358;50.760;0.282;2023-04-25T09:10:32;2.63;;;1.60;;
12585;SDS011;6358;50.760;0.282;2023-04-25T09:15:31;2.50;;;1.30;;
12585;SDS011;6358;50.760;0.282;2023-04-25T09:17:57;2.07;;;1.30;;
12585;SDS011;6358;50.760;0.282;2023-04-25T09:20:23;5.07;;;1.50;;
12585;SDS011;6358;50.760;0.282;2023-04-25T09:23:00;1.87;;;1.40;;
12585;SDS011;6358;50.760;0.282;2023-04-25T09:25:27;1.87;;;1.20;;
12585;SDS011;6358;50.760;0.282;2023-04-25T09:28:00;2.37;;;1.50;;
12585;SDS011;6358;50.760;0.282;2023-04-25T09:30:30;2.20;;;1.50;;
12585;SDS011;6358;50.760;0.282;2023-04-25T09:32:56;3.37;;;1.53;;
12585;SDS011;6358;50.760;0.282;2023-04-25T09:35:24;2.00;;;1.30;;
12585;SDS011;6358;50.760;0.282;2023-04-25T09:37:53;4.10;;;2.00;;
12585;SDS011;6358;50.760;0.282;2023-04-25T09:40:19;3.50;;;1.70;;
12585;SDS011;6358;50.760;0.282;2023-04-25T09:42:45;2.93;;;1.40;;
12585;SDS011;6358;50.760;0.282;2023-04-25T09:45:12;2.10;;;1.37;;
12585;SDS011;6358;50.760;0.282;2023-04-25T09:47:40;3.33;;;1.40;;
12585;SDS011;6358;50.760;0.282;2023-04-25T09:50:15;2.30;;;1.40;;
12585;SDS011;6358;50.760;0.282;2023-04-25T09:52:41;1.53;;;1.40;;
12585;SDS011;6358;50.760;0.282;2023-04-25T09:55:07;2.37;;;1.47;;
12585;SDS011;6358;50.760;0.282;2023-04-25T09:57:34;1.70;;;1.30;;
12585;SDS011;6358;50.760;0.282;2023-04-25T10:00:05;2.67;;;1.60;;
12585;SDS011;6358;50.760;0.282;2023-04-25T10:02:37;2.00;;;1.40;;
12585;SDS011;6358;50.760;0.282;2023-04-25T10:05:05;2.60;;;1.50;;
12585;SDS011;6358;50.760;0.282;2023-04-25T10:07:31;1.67;;;1.30;;
12585;SDS011;6358;50.760;0.282;2023-04-25T10:10:02;2.50;;;1.40;;
12585;SDS011;6358;50.760;0.282;2023-04-25T10:12:29;3.40;;;1.50;;
12585;SDS011;6358;50.760;0.282;2023-04-25T10:14:56;2.17;;;1.37;;
12585;SDS011;6358;50.760;0.282;2023-04-25T10:17:23;3.20;;;1.60;;
12585;SDS011;6358;50.760;0.282;2023-04-25T10:19:50;2.23;;;1.40;;
12585;SDS011;6358;50.760;0.282;2023-04-25T10:22:29;1.60;;;1.20;;
12585;SDS011;6358;50.760;0.282;2023-04-25T10:24:55;2.13;;;1.47;;
12585;SDS011;6358;50.760;0.282;2023-04-25T10:27:22;2.03;;;1.40;;
12585;SDS011;6358;50.760;0.282;2023-04-25T10:30:04;1.70;;;1.30;;
12585;SDS011;6358;50.760;0.282;2023-04-25T10:32:31;3.07;;;1.40;;
12585;SDS011;6358;50.760;0.282;2023-04-25T10:35:04;4.83;;;1.70;;
12585;SDS011;6358;50.760;0.282;2023-04-25T10:37:35;2.70;;;1.40;;
12585;SDS011;6358;50.760;0.282;2023-04-25T10:40:08;1.80;;;1.00;;
12585;SDS011;6358;50.760;0.282;2023-04-25T10:42:34;2.03;;;1.43;;
12585;SDS011;6358;50.760;0.282;2023-04-25T10:45:01;2.43;;;1.30;;
12585;SDS011;6358;50.760;0.282;2023-04-25T10:47:35;1.37;;;1.27;;
12585;SDS011;6358;50.760;0.282;2023-04-25T10:50:05;2.27;;;1.27;;
12585;SDS011;6358;50.760;0.282;2023-04-25T10:52:32;1.70;;;1.30;;
12585;SDS011;6358;50.760;0.282;2023-04-25T10:54:59;3.40;;;1.67;;
12585;SDS011;6358;50.760;0.282;2023-04-25T10:57:32;3.30;;;1.50;;
12585;SDS011;6358;50.760;0.282;2023-04-25T11:00:07;2.07;;;1.50;;
12585;SDS011;6358;50.760;0.282;2023-04-25T11:02:37;2.03;;;1.23;;
12585;SDS011;6358;50.760;0.282;2023-04-25T11:05:03;2.07;;;1.33;;
12585;SDS011;6358;50.760;0.282;2023-04-25T11:07:44;2.70;;;1.40;;
12585;SDS011;6358;50.760;0.282;2023-04-25T11:10:12;2.67;;;1.40;;
12585;SDS011;6358;50.760;0.282;2023-04-25T11:12:39;2.03;;;1.30;;
12585;SDS011;6358;50.760;0.282;2023-04-25T11:15:06;3.13;;;1.30;;
12585;SDS011;6358;50.760;0.282;2023-04-25T11:17:33;1.60;;;1.43;;
12585;SDS011;6358;50.760;0.282;2023-04-25T11:19:59;1.57;;;1.10;;
12585;SDS011;6358;50.760;0.282;2023-04-25T11:22:28;2.17;;;1.30;;
12585;SDS011;6358;50.760;0.282;2023-04-25T11:24:55;2.33;;;1.40;;
12585;SDS011;6358;50.760;0.282;2023-04-25T11:27:21;1.80;;;1.17;;
12585;SDS011;6358;50.760;0.282;2023-04-25T11:29:49;1.83;;;1.40;;
12585;SDS011;6358;50.760;0.282;2023-04-25T11:32:15;1.67;;;1.20;;
12585;SDS011;6358;50.760;0.282;2023-04-25T11:34:42;1.50;;;1.13;;
12585;SDS011;6358;50.760;0.282;2023-04-25T11:37:10;1.67;;;1.23;;
12585;SDS011;6358;50.760;0.282;2023-04-25T11:39:42;2.17;;;1.30;;
12585;SDS011;6358;50.760;0.282;2023-04-25T11:42:09;2.10;;;1.30;;
12585;SDS011;6358;50.760;0.282;2023-04-25T11:44:35;3.17;;;1.50;;
12585;SDS011;6358;50.760;0.282;2023-04-25T11:47:01;1.77;;;1.53;;
12585;SDS011;6358;50.760;0.282;2023-04-25T11:49:30;1.73;;;1.20;;
12585;SDS011;6358;50.760;0.282;2023-04-25T11:51:56;2.80;;;1.20;;
12585;SDS011;6358;50.760;0.282;2023-04-25T11:54:22;2.27;;;1.50;;
12585;SDS011;6358;50.760;0.282;2023-04-25T11:56:48;2.27;;;1.27;;
12585;SDS011;6358;50.760;0.282;2023-04-25T11:59:15;1.67;;;1.20;;
12585;SDS011;6358;50.760;0.282;2023-04-25T12:01:47;2.90;;;1.30;;
12585;SDS011;6358;50.760;0.282;2023-04-25T12:06:40;2.87;;;1.40;;
12585;SDS011;6358;50.760;0.282;2023-04-25T12:09:07;2.43;;;1.30;;
12585;SDS011;6358;50.760;0.282;2023-04-25T12:11:40;1.43;;;1.17;;
12585;SDS011;6358;50.760;0.282;2023-04-25T12:14:06;2.37;;;1.23;;
12585;SDS011;6358;50.760;0.282;2023-04-25T12:16:42;1.60;;;1.13;;
12585;SDS011;6358;50.760;0.282;2023-04-25T12:19:09;3.07;;;1.27;;
12585;SDS011;6358;50.760;0.282;2023-04-25T12:21:35;2.27;;;1.20;;
12585;SDS011;6358;50.760;0.282;2023-04-25T12:24:11;2.17;;;1.30;;
12585;SDS011;6358;50.760;0.282;2023-04-25T12:29:20;3.57;;;1.30;;
12585;SDS011;6358;50.760;0.282;2023-04-25T12:31:46;2.97;;;1.27;;
12585;SDS011;6358;50.760;0.282;2023-04-25T12:34:13;1.50;;;1.40;;
12585;SDS011;6358;50.760;0.282;2023-04-25T12:36:39;1.60;;;1.23;;
12585;SDS011;6358;50.760;0.282;2023-04-25T12:39:05;2.77;;;1.30;;
12585;SDS011;6358;50.760;0.282;2023-04-25T12:41:32;2.30;;;1.27;;
12585;SDS011;6358;50.760;0.282;2023-04-25T12:43:58;1.40;;;1.10;;
12585;SDS011;6358;50.760;0.282;2023-04-25T12:46:24;1.50;;;1.20;;
12585;SDS011;6358;50.760;0.282;2023-04-25T12:48:51;1.97;;;1.20;;
12585;SDS011;6358;50.760;0.282;2023-04-25T12:51:17;1.60;;;1.10;;
12585;SDS011;6358;50.760;0.282;2023-04-25T12:53:43;3.17;;;1.40;;
12585;SDS011;6358;50.760;0.282;2023-04-25T12:56:09;2.10;;;1.30;;
12585;SDS011;6358;50.760;0.282;2023-04-25T12:58:35;2.77;;;1.20;;
12585;SDS011;6358;50.760;0.282;2023-04-25T13:01:01;1.60;;;1.10;;
12585;SDS011;6358;50.760;0.282;2023-04-25T13:03:27;2.30;;;1.37;;
12585;SDS011;6358;50.760;0.282;2023-04-25T13:05:53;1.50;;;1.20;;
12585;SDS011;6358;50.760;0.282;2023-04-25T13:08:20;1.77;;;1.10;;
12585;SDS011;6358;50.760;0.282;2023-04-25T13:10:47;2.20;;;1.10;;
12585;SDS011;6358;50.760;0.282;2023-04-25T13:13:13;2.23;;;1.10;;
12585;SDS011;6358;50.760;0.282;2023-04-25T13:15:39;2.00;;;1.17;;
12585;SDS011;6358;50.760;0.282;2023-04-25T13:18:05;1.83;;;1.20;;
12585;SDS011;6358;50.760;0.282;2023-04-25T13:20:31;2.03;;;1.40;;
12585;SDS011;6358;50.760;0.282;2023-04-25T13:22:58;1.47;;;1.20;;
12585;SDS011;6358;50.760;0.282;2023-04-25T13:25:24;2.07;;;1.27;;
12585;SDS011;6358;50.760;0.282;2023-04-25T13:27:50;1.90;;;1.07;;
12585;SDS011;6358;50.760;0.282;2023-04-25T13:30:17;1.53;;;1.27;;
12585;SDS011;6358;50.760;0.282;2023-04-25T13:32:43;1.37;;;1.13;;
12585;SDS011;6358;50.760;0.282;2023-04-25T13:35:10;2.33;;;1.40;;
12585;SDS011;6358;50.760;0.282;2023-04-25T13:37:37;1.57;;;1.20;;
12585;SDS011;6358;50.760;0.282;2023-04-25T13:40:04;1.90;;;1.20;;
12585;SDS011;6358;50.760;0.282;2023-04-25T13:42:33;1.20;;;1.10;;
12585;SDS011;6358;50.760;0.282;2023-04-25T13:44:59;2.10;;;1.20;;
12585;SDS011;6358;50.760;0.282;2023-04-25T13:47:25;2.07;;;1.30;;
12585;SDS011;6358;50.760;0.282;2023-04-25T13:49:52;2.00;;;1.23;;
12585;SDS011;6358;50.760;0.282;2023-04-25T13:52:18;2.23;;;1.13;;
12585;SDS011;6358;50.760;0.282;2023-04-25T13:54:44;3.13;;;1.20;;
12585;SDS011;6358;50.760;0.282;2023-04-25T13:57:10;2.90;;;1.30;;
12585;SDS011;6358;50.760;0.282;2023-04-25T13:59:37;1.73;;;1.30;;
12585;SDS011;6358;50.760;0.282;2023-04-25T14:02:03;1.47;;;1.10;;
12585;SDS011;6358;50.760;0.282;2023-04-25T14:04:29;4.23;;;1.50;;
12585;SDS011;6358;50.760;0.282;2023-04-25T14:06:55;4.23;;;1.40;;
12585;SDS011;6358;50.760;0.282;2023-04-25T14:09:21;1.53;;;1.10;;
12585;SDS011;6358;50.760;0.282;2023-04-25T14:11:51;1.93;;;1.17;;
12585;SDS011;6358;50.760;0.282;2023-04-25T14:14:17;2.20;;;1.20;;
12585;SDS011;6358;50.760;0.282;2023-04-25T14:16:44;1.57;;;1.20;;
12585;SDS011;6358;50.760;0.282;2023-04-25T14:19:10;1.60;;;1.20;;
12585;SDS011;6358;50.760;0.282;2023-04-25T14:21:36;1.83;;;1.30;;
12585;SDS011;6358;50.760;0.282;2023-04-25T14:24:02;1.57;;;1.20;;
12585;SDS011;6358;50.760;0.282;2023-04-25T14:26:29;1.37;;;1.27;;
12585;SDS011;6358;50.760;0.282;2023-04-25T14:28:56;2.17;;;1.20;;
12585;SDS011;6358;50.760;0.282;2023-04-25T14:31:22;2.90;;;1.50;;
12585;SDS011;6358;50.760;0.282;2023-04-25T14:33:48;1.73;;;1.10;;
12585;SDS011;6358;50.760;0.282;2023-04-25T14:36:15;1.63;;;1.17;;
12585;SDS011;6358;50.760;0.282;2023-04-25T14:38:41;1.63;;;1.13;;
12585;SDS011;6358;50.760;0.282;2023-04-25T14:41:07;1.20;;;1.10;;
12585;SDS011;6358;50.760;0.282;2023-04-25T14:43:33;1.83;;;1.20;;
12585;SDS011;6358;50.760;0.282;2023-04-25T14:45:59;1.50;;;1.20;;
12585;SDS011;6358;50.760;0.282;2023-04-25T14:48:25;1.33;;;1.23;;
12585;SDS011;6358;50.760;0.282;2023-04-25T14:50:51;1.30;;;1.20;;
12585;SDS011;6358;50.760;0.282;2023-04-25T14:53:17;2.53;;;1.40;;
12585;SDS011;6358;50.760;0.282;2023-04-25T14:55:43;2.43;;;1.30;;
12585;SDS011;6358;50.760;0.282;2023-04-25T14:58:10;1.87;;;1.40;;
12585;SDS011;6358;50.760;0.282;2023-04-25T15:00:36;1.83;;;1.30;;
12585;SDS011;6358;50.760;0.282;2023-04-25T15:03:03;2.03;;;1.20;;
12585;SDS011;6358;50.760;0.282;2023-04-25T15:05:30;1.60;;;1.40;;